createdAt,value
2023-01-10T00:01:12.529Z,99991.81
2023-01-10T00:08:44.407Z,100002.78
2023-01-10T00:16:16.233Z,100013.75
2023-01-10T00:23:49.027Z,100014.88
2023-01-10T00:31:20.874Z,100017.63
2023-01-10T00:38:52.784Z,100025.84
2023-01-10T00:46:24.641Z,100036.81
2023-01-10T00:53:56.590Z,100042.31
2023-01-10T01:01:28.606Z,100053.25
2023-01-10T01:09:00.388Z,100061.50
2023-01-10T01:16:32.191Z,100083.41
2023-01-10T01:24:04.051Z,100087.75
2023-01-10T01:31:35.795Z,100117.91
2023-01-10T01:39:07.643Z,100146.47
2023-01-10T01:46:39.568Z,100165.69
2023-01-10T01:54:12.064Z,100157.25
2023-01-10T02:01:45.304Z,100162.41
2023-01-10T02:17:01.491Z,100184.34
2023-01-10T02:25:04.878Z,100194.50
2023-01-10T02:33:04.559Z,100198.38
2023-01-10T02:41:21.473Z,100209.03
2023-01-10T02:48:54.150Z,100207.69
2023-01-10T02:57:10.520Z,100214.59
2023-01-10T03:04:55.739Z,100237.06
2023-01-10T03:12:34.821Z,100249.97
2023-01-10T03:20:07.128Z,100282.56
2023-01-10T03:28:03.973Z,100295.13
2023-01-10T03:36:00.931Z,100317.06
2023-01-10T03:44:01.704Z,100327.22
2023-01-10T03:51:33.410Z,100334.66
2023-01-10T03:59:05.169Z,100341.53
2023-01-10T04:06:37.004Z,100362.06
2023-01-10T04:14:08.746Z,100384.00
2023-01-10T04:21:40.537Z,100394.97
2023-01-10T04:29:12.321Z,100407.84
2023-01-10T04:36:44.133Z,100428.66
2023-01-10T04:44:15.939Z,100448.97
2023-01-10T04:51:47.744Z,100471.72
2023-01-10T04:59:20.039Z,100487.34
2023-01-10T05:06:51.805Z,100507.06
2023-01-10T05:14:23.520Z,100515.59
2023-01-10T05:21:55.292Z,100531.22
2023-01-10T05:29:27.047Z,100543.03
2023-01-10T05:36:58.929Z,100557.53
2023-01-10T05:44:30.744Z,100579.16
2023-01-10T05:52:02.535Z,100587.94
2023-01-10T05:59:34.274Z,100601.63
2023-01-10T06:07:06.083Z,100614.50
2023-01-10T06:14:37.828Z,100624.75
2023-01-10T06:22:09.606Z,100653.50
2023-01-10T06:29:41.363Z,100653.50
2023-01-10T06:37:13.152Z,100677.38
2023-01-10T06:44:44.897Z,100692.69
2023-01-10T06:52:16.642Z,100709.16
2023-01-10T06:59:48.568Z,100722.06
2023-01-10T07:07:20.327Z,100726.44
2023-01-10T07:22:23.647Z,100758.50
2023-01-10T07:29:55.420Z,100769.47
2023-01-10T07:37:27.221Z,100782.69
2023-01-10T07:44:59.049Z,100812.78
2023-01-10T07:52:30.763Z,100824.91
2023-01-10T08:00:02.818Z,100825.22
2023-01-10T08:07:36.846Z,100850.69
2023-01-10T08:15:09.445Z,100861.66
2023-01-10T08:22:41.225Z,100867.13
2023-01-10T08:30:13.621Z,100880.84
2023-01-10T08:37:45.401Z,100886.88
2023-01-10T08:45:17.174Z,100898.94
2023-01-10T08:52:49.049Z,100911.84
2023-01-10T09:00:21.637Z,100913.50
2023-01-10T09:07:54.160Z,100937.34
2023-01-10T09:15:29.586Z,100951.88
2023-01-10T09:23:23.149Z,100942.31
2023-01-10T09:30:54.973Z,100951.88
2023-01-10T09:38:26.795Z,100960.38
2023-01-10T09:46:08.416Z,100960.91
2023-01-10T09:53:41.502Z,100976.28
2023-01-10T10:01:17.168Z,100988.31
2023-01-10T10:16:56.167Z,100984.44
2023-01-10T10:24:47.373Z,100982.81
2023-01-10T10:32:35.789Z,100993.78
2023-01-10T10:40:13.535Z,100998.97
2023-01-10T10:47:53.325Z,101021.72
2023-01-10T10:55:31.450Z,101014.34
2023-01-10T11:03:05.808Z,101025.31
2023-01-10T11:10:38.448Z,101039.03
2023-01-10T11:18:15.004Z,101036.53
2023-01-10T11:25:46.876Z,101009.94
2023-01-10T11:34:42.414Z,101029.16
2023-01-10T11:42:30.307Z,101032.19
2023-01-10T11:50:03.830Z,101034.91
2023-01-10T11:57:35.585Z,101048.63
2023-01-10T12:05:10.444Z,101056.03
2023-01-10T12:12:52.034Z,101050.25
2023-01-10T12:20:24.013Z,101053.00
2023-01-10T12:27:56.372Z,101028.84
2023-01-10T12:36:07.329Z,101037.09
2023-01-10T12:43:59.397Z,101062.88
2023-01-10T12:51:31.210Z,101073.03
2023-01-10T12:59:06.566Z,101079.31
2023-01-10T13:06:40.225Z,101084.00
2023-01-10T13:14:14.606Z,101094.13
2023-01-10T13:21:47.196Z,101105.09
2023-01-10T13:29:22.614Z,101109.78
2023-01-10T13:37:10.657Z,101121.00
2023-01-10T13:45:00.586Z,101119.38
2023-01-10T13:52:33.042Z,101139.13
2023-01-10T14:00:24.426Z,101127.56
2023-01-10T14:07:57.859Z,101117.66
2023-01-10T14:15:38.624Z,101128.34
2023-01-10T14:23:16.273Z,101134.34
2023-01-10T14:31:01.960Z,101131.34
2023-01-10T14:38:35.431Z,101123.38
2023-01-10T14:46:17.480Z,101126.41
2023-01-10T14:54:24.399Z,101141.75
2023-01-10T15:02:29.534Z,101135.75
2023-01-10T15:10:03.953Z,101135.75
2023-01-10T15:17:35.968Z,101126.41
2023-01-10T15:25:28.238Z,101129.16
2023-01-10T15:33:15.064Z,101128.63
2023-01-10T15:40:46.860Z,101136.31
2023-01-10T15:48:31.639Z,101144.53
2023-01-10T15:56:12.446Z,101155.50
2023-01-10T16:03:47.506Z,101155.00
2023-01-10T16:11:54.037Z,101154.16
2023-01-10T16:19:25.828Z,101147.06
2023-01-10T16:27:00.393Z,101142.38
2023-01-10T16:34:34.171Z,101140.72
2023-01-10T16:42:24.273Z,101132.50
2023-01-10T16:49:56.081Z,101144.31
2023-01-10T16:57:27.885Z,101149.78
2023-01-10T17:04:59.618Z,101147.34
2023-01-10T17:12:34.763Z,101137.47
2023-01-10T17:20:07.303Z,101137.47
2023-01-10T17:27:39.217Z,101142.94
2023-01-10T17:35:11.042Z,101142.94
2023-01-10T17:42:42.819Z,101158.84
2023-01-10T17:50:14.923Z,101155.28
2023-01-10T17:57:46.660Z,101147.84
2023-01-10T18:05:18.392Z,101151.16
2023-01-10T18:12:50.148Z,101144.25
2023-01-10T18:20:21.894Z,101138.22
2023-01-10T18:27:55.279Z,101140.66
2023-01-10T18:35:28.025Z,101134.31
2023-01-10T18:42:59.734Z,101124.19
2023-01-10T18:50:31.454Z,101114.81
2023-01-10T18:58:03.237Z,101116.75
2023-01-10T19:05:35.017Z,101109.31
2023-01-10T19:13:07.293Z,101114.81
2023-01-10T19:20:39.106Z,101108.81
2023-01-10T19:28:10.892Z,101098.94
2023-01-10T19:35:43.998Z,101096.19
2023-01-10T19:43:16.103Z,101081.66
2023-01-10T19:50:48.585Z,101082.19
2023-01-10T19:58:20.351Z,101072.06
2023-01-10T20:05:52.292Z,101068.75
2023-01-10T20:13:24.170Z,101050.38
2023-01-10T20:20:56.192Z,101058.34
2023-01-10T20:28:28.920Z,101046.00
2023-01-10T20:36:05.768Z,101044.63
2023-01-10T20:43:37.479Z,101035.84
2023-01-10T20:51:12.246Z,101025.69
2023-01-10T20:58:44.107Z,101028.97
2023-01-10T21:06:16.968Z,101041.31
2023-01-10T21:13:48.766Z,101031.44
2023-01-10T21:21:22.514Z,101025.97
2023-01-10T21:28:54.321Z,101021.63
2023-01-10T21:36:26.073Z,101007.34
2023-01-10T21:43:57.836Z,101003.50
2023-01-10T21:51:29.626Z,100992.53
2023-01-10T21:59:01.433Z,100980.72
2023-01-10T22:06:33.316Z,100974.44
2023-01-10T22:14:05.110Z,100966.75
2023-01-10T22:21:36.933Z,100965.63
2023-01-10T22:29:08.768Z,100959.63
2023-01-10T22:36:40.614Z,100933.81
2023-01-10T22:44:20.285Z,100931.09
2023-01-10T22:51:52.038Z,100916.53
2023-01-10T22:59:23.778Z,100911.34
2023-01-10T23:06:56.793Z,100908.59
2023-01-10T23:14:28.626Z,100890.50
2023-01-10T23:22:00.400Z,100886.16
2023-01-10T23:29:32.154Z,100877.91
2023-01-10T23:37:04.209Z,100866.94
2023-01-10T23:44:36.017Z,100860.31
2023-01-10T23:52:07.751Z,100839.50
2023-01-10T23:59:39.655Z,100814.81
